createdAt,value
2023-05-19T00:01:16.845Z,14.65
2023-05-19T00:03:54.117Z,14.35
2023-05-19T00:06:25.815Z,13.93
2023-05-19T00:09:01.378Z,14.25
2023-05-19T00:11:29.307Z,13.82
2023-05-19T00:14:00.108Z,14.07
2023-05-19T00:16:28.138Z,13.10
2023-05-19T00:18:55.089Z,14.88
2023-05-19T00:21:21.867Z,13.52
2023-05-19T00:23:48.656Z,13.65
2023-05-19T00:26:15.817Z,13.43
2023-05-19T00:28:42.517Z,12.63
2023-05-19T00:31:09.221Z,12.63
2023-05-19T00:33:35.996Z,13.35
2023-05-19T00:36:06.262Z,12.90
2023-05-19T00:38:35.136Z,14.40
2023-05-19T00:41:02.906Z,14.40
2023-05-19T00:43:34.628Z,13.35
2023-05-19T00:46:01.569Z,11.68
2023-05-19T00:48:28.850Z,11.50
2023-05-19T00:51:02.344Z,12.05
2023-05-19T00:53:29.589Z,10.38
2023-05-19T00:55:56.600Z,12.38
2023-05-19T00:58:24.080Z,11.07
2023-05-19T01:00:50.890Z,10.55
2023-05-19T01:03:20.526Z,11.27
2023-05-19T01:05:53.861Z,10.75
2023-05-19T01:08:20.798Z,11.30
2023-05-19T01:10:47.561Z,11.52
2023-05-19T01:13:14.941Z,12.25
2023-05-19T01:15:56.901Z,12.48
2023-05-19T01:18:33.087Z,12.23
2023-05-19T01:21:18.685Z,11.57
2023-05-19T01:23:51.167Z,13.20
2023-05-19T01:26:37.915Z,10.98
2023-05-19T01:29:19.552Z,12.18
2023-05-19T01:31:48.148Z,10.55
2023-05-19T01:34:15.309Z,8.98
2023-05-19T01:36:44.970Z,8.80
2023-05-19T01:39:12.223Z,9.40
2023-05-19T01:41:42.206Z,8.85
2023-05-19T01:44:10.100Z,9.85
2023-05-19T01:46:38.113Z,8.70
2023-05-19T01:49:06.008Z,8.00
2023-05-19T01:51:32.716Z,8.25
2023-05-19T01:53:59.523Z,7.45
2023-05-19T01:56:44.835Z,8.57
2023-05-19T01:59:42.578Z,8.02
2023-05-19T02:02:35.870Z,7.53
2023-05-19T02:05:10.596Z,8.80
2023-05-19T02:07:45.704Z,9.07
2023-05-19T02:10:18.823Z,7.63
2023-05-19T02:12:46.210Z,8.13
2023-05-19T02:15:22.514Z,7.95
2023-05-19T02:17:52.175Z,8.88
2023-05-19T02:20:19.123Z,6.38
2023-05-19T02:22:45.928Z,8.32
2023-05-19T02:25:12.871Z,8.02
2023-05-19T02:27:40.080Z,7.30
2023-05-19T02:30:08.500Z,7.95
2023-05-19T02:32:36.634Z,7.55
2023-05-19T02:35:04.210Z,7.05
2023-05-19T02:37:31.279Z,7.78
2023-05-19T02:39:58.230Z,7.40
2023-05-19T02:42:24.940Z,7.70
2023-05-19T02:44:54.281Z,7.45
2023-05-19T02:47:21.251Z,6.70
2023-05-19T02:49:47.947Z,6.40
2023-05-19T02:52:14.605Z,6.93
2023-05-19T02:54:41.330Z,7.30
2023-05-19T02:57:08.067Z,6.38
2023-05-19T02:59:34.760Z,7.28
2023-05-19T03:02:02.919Z,7.00
2023-05-19T03:04:30.263Z,6.82
2023-05-19T03:07:00.327Z,6.80
2023-05-19T03:09:27.241Z,6.65
2023-05-19T03:11:53.874Z,7.03
2023-05-19T03:14:24.108Z,6.20
2023-05-19T03:16:51.326Z,6.57
2023-05-19T03:19:18.434Z,6.88
2023-05-19T03:21:45.170Z,6.18
2023-05-19T03:24:12.157Z,6.32
2023-05-19T03:26:39.122Z,5.93
2023-05-19T03:29:06.139Z,6.55
2023-05-19T03:31:33.336Z,7.05
2023-05-19T03:34:00.047Z,5.97
2023-05-19T03:36:32.311Z,5.80
2023-05-19T03:38:59.530Z,6.60
2023-05-19T03:41:26.342Z,7.00
2023-05-19T03:43:53.133Z,6.35
2023-05-19T03:46:20.028Z,6.25
2023-05-19T03:48:46.933Z,6.53
2023-05-19T03:51:13.679Z,6.35
2023-05-19T03:53:41.374Z,6.68
2023-05-19T03:56:08.934Z,6.28
2023-05-19T03:58:37.291Z,5.57
2023-05-19T04:01:03.995Z,5.57
2023-05-19T04:03:30.836Z,6.00
2023-05-19T04:05:57.544Z,7.03
2023-05-19T04:08:24.340Z,6.03
2023-05-19T04:10:51.084Z,5.55
2023-05-19T04:13:17.736Z,6.07
2023-05-19T04:15:44.539Z,6.40
2023-05-19T04:18:11.294Z,6.43
2023-05-19T04:20:38.164Z,6.57
2023-05-19T04:23:04.860Z,5.40
2023-05-19T04:25:31.554Z,6.15
2023-05-19T04:27:58.198Z,5.75
2023-05-19T04:30:25.086Z,6.65
2023-05-19T04:32:51.863Z,5.55
2023-05-19T04:35:19.668Z,6.05
2023-05-19T04:37:46.425Z,7.50
2023-05-19T04:40:13.568Z,6.65
2023-05-19T04:42:45.931Z,6.40
2023-05-19T04:45:14.266Z,6.43
2023-05-19T04:47:42.489Z,6.65
2023-05-19T04:50:11.172Z,6.50
2023-05-19T04:52:37.920Z,6.60
2023-05-19T04:55:04.996Z,6.78
2023-05-19T04:57:31.907Z,6.28
2023-05-19T05:00:00.356Z,6.45
2023-05-19T05:02:30.124Z,6.07
2023-05-19T05:04:56.933Z,6.55
2023-05-19T05:07:24.088Z,7.03
2023-05-19T05:09:51.254Z,6.15
2023-05-19T05:12:18.955Z,6.05
2023-05-19T05:14:45.972Z,6.07
2023-05-19T05:17:13.431Z,6.68
2023-05-19T05:19:40.580Z,6.85
2023-05-19T05:22:07.585Z,6.38
2023-05-19T05:24:34.690Z,6.35
2023-05-19T05:27:01.760Z,6.13
2023-05-19T05:29:28.650Z,7.40
2023-05-19T05:31:55.539Z,6.25
2023-05-19T05:34:22.325Z,6.80
2023-05-19T05:36:49.149Z,5.57
2023-05-19T05:39:16.138Z,6.25
2023-05-19T05:41:42.894Z,7.20
2023-05-19T05:44:09.610Z,6.07
2023-05-19T05:46:36.544Z,5.93
2023-05-19T05:49:03.540Z,6.25
2023-05-19T05:51:32.959Z,6.88
2023-05-19T05:54:00.663Z,6.60
2023-05-19T05:56:27.820Z,6.65
2023-05-19T05:58:54.521Z,6.68
2023-05-19T06:01:22.136Z,7.38
2023-05-19T06:03:48.944Z,7.15
2023-05-19T06:06:15.777Z,8.05
2023-05-19T06:08:42.765Z,7.18
2023-05-19T06:11:09.813Z,7.07
2023-05-19T06:13:37.115Z,7.47
2023-05-19T06:16:04.537Z,7.40
2023-05-19T06:18:31.324Z,6.45
2023-05-19T06:20:58.265Z,7.13
2023-05-19T06:23:26.880Z,7.78
2023-05-19T06:25:53.605Z,7.05
2023-05-19T06:28:20.278Z,7.35
2023-05-19T06:30:47.079Z,6.95
2023-05-19T06:33:13.812Z,7.60
2023-05-19T06:35:40.678Z,7.15
2023-05-19T06:38:07.376Z,7.45
2023-05-19T06:40:34.512Z,6.78
2023-05-19T06:43:01.522Z,8.02
2023-05-19T06:45:28.327Z,7.05
2023-05-19T06:47:55.650Z,6.63
2023-05-19T06:50:22.429Z,6.60
2023-05-19T06:52:49.235Z,7.43
2023-05-19T06:55:16.090Z,6.95
2023-05-19T06:57:43.305Z,7.53
2023-05-19T07:00:14.511Z,7.80
2023-05-19T07:02:42.890Z,7.68
2023-05-19T07:05:09.883Z,7.65
2023-05-19T07:07:36.589Z,6.93
2023-05-19T07:10:03.358Z,7.97
2023-05-19T07:12:30.263Z,7.35
2023-05-19T07:14:57.068Z,7.55
2023-05-19T07:17:23.815Z,7.70
2023-05-19T07:19:50.626Z,7.57
2023-05-19T07:22:17.428Z,7.30
2023-05-19T07:24:44.122Z,7.57
2023-05-19T07:27:13.496Z,7.25
2023-05-19T07:29:40.192Z,7.72
2023-05-19T07:32:07.274Z,7.47
2023-05-19T07:34:33.964Z,7.88
2023-05-19T07:37:00.757Z,10.82
2023-05-19T07:39:29.831Z,7.72
2023-05-19T07:41:56.747Z,11.43
2023-05-19T07:44:23.644Z,7.93
2023-05-19T07:46:50.699Z,8.15
2023-05-19T07:49:17.448Z,6.80
2023-05-19T07:51:44.430Z,6.82
2023-05-19T07:54:14.117Z,7.25
2023-05-19T07:56:41.629Z,8.38
2023-05-19T07:59:08.430Z,7.15
2023-05-19T08:01:35.386Z,7.85
2023-05-19T08:04:02.556Z,6.30
2023-05-19T08:06:30.510Z,7.22
2023-05-19T08:08:57.443Z,7.63
2023-05-19T08:11:24.207Z,8.18
2023-05-19T08:13:51.197Z,6.68
2023-05-19T08:16:17.936Z,8.15
2023-05-19T08:18:44.814Z,7.25
2023-05-19T08:21:11.924Z,6.40
2023-05-19T08:23:38.854Z,7.70
2023-05-19T08:26:05.845Z,7.07
2023-05-19T08:28:32.573Z,6.60
2023-05-19T08:30:59.548Z,8.18
2023-05-19T08:33:26.407Z,6.90
2023-05-19T08:35:53.220Z,7.28
2023-05-19T08:38:19.983Z,7.30
2023-05-19T08:40:48.552Z,6.95
2023-05-19T08:43:15.365Z,7.10
2023-05-19T08:45:48.412Z,6.93
2023-05-19T08:48:17.685Z,6.63
2023-05-19T08:50:50.420Z,7.43
2023-05-19T08:53:33.152Z,7.18
2023-05-19T08:56:22.911Z,7.43
2023-05-19T08:58:51.054Z,7.65
2023-05-19T09:01:18.799Z,7.35
2023-05-19T09:03:46.763Z,7.47
2023-05-19T09:06:13.760Z,7.03
2023-05-19T09:08:41.733Z,7.35
2023-05-19T09:11:14.912Z,8.00
2023-05-19T09:13:43.896Z,7.18
2023-05-19T09:16:11.946Z,7.63
2023-05-19T09:18:39.520Z,7.13
2023-05-19T09:21:07.474Z,8.20
2023-05-19T09:23:34.378Z,7.50
2023-05-19T09:26:07.869Z,8.23
2023-05-19T09:28:36.640Z,8.80
2023-05-19T09:31:08.042Z,7.78
2023-05-19T09:33:36.347Z,8.70
2023-05-19T09:36:06.198Z,7.20
2023-05-19T09:38:33.286Z,6.70
2023-05-19T09:41:01.317Z,6.68
2023-05-19T09:43:29.426Z,7.70
2023-05-19T09:46:10.580Z,8.55
2023-05-19T09:48:38.706Z,9.57
2023-05-19T09:51:08.043Z,9.85
2023-05-19T09:53:35.454Z,9.15
2023-05-19T09:56:03.596Z,9.38
2023-05-19T09:58:37.620Z,9.65
2023-05-19T10:01:05.624Z,8.75
2023-05-19T10:03:35.329Z,10.27
2023-05-19T10:06:02.907Z,9.63
2023-05-19T10:08:30.850Z,8.75
2023-05-19T10:10:58.384Z,10.80
2023-05-19T10:13:26.103Z,9.85
2023-05-19T10:15:58.596Z,10.50
2023-05-19T10:18:27.350Z,11.93
2023-05-19T10:20:59.192Z,9.20
2023-05-19T10:23:26.560Z,11.25
2023-05-19T10:25:56.643Z,8.80
2023-05-19T10:28:26.800Z,10.07
2023-05-19T10:30:56.900Z,8.93
2023-05-19T10:33:34.212Z,7.72
2023-05-19T10:36:32.238Z,9.38
2023-05-19T10:39:22.207Z,8.50
2023-05-19T10:42:18.340Z,9.15
2023-05-19T10:45:21.490Z,7.80
2023-05-19T10:47:51.218Z,7.47
2023-05-19T10:50:17.998Z,8.55
2023-05-19T10:52:44.954Z,7.18
2023-05-19T10:55:18.075Z,7.60
2023-05-19T10:57:56.854Z,7.57
2023-05-19T11:00:28.202Z,9.05
2023-05-19T11:02:57.983Z,9.10
2023-05-19T11:05:29.640Z,7.53
2023-05-19T11:08:02.483Z,7.43
2023-05-19T11:10:29.479Z,7.57
2023-05-19T11:12:58.282Z,7.00
2023-05-19T11:15:28.894Z,7.22
2023-05-19T11:17:56.026Z,8.35
2023-05-19T11:20:27.774Z,7.97
2023-05-19T11:23:03.779Z,8.48
2023-05-19T11:25:41.729Z,9.43
2023-05-19T11:28:09.024Z,6.93
2023-05-19T11:30:35.969Z,7.57
2023-05-19T11:33:03.003Z,8.57
2023-05-19T11:35:29.928Z,9.63
2023-05-19T11:37:58.818Z,8.55
2023-05-19T11:40:26.033Z,8.30
2023-05-19T11:42:53.161Z,8.10
2023-05-19T11:45:26.074Z,8.48
2023-05-19T11:48:02.104Z,6.72
2023-05-19T11:50:32.045Z,7.13
2023-05-19T11:53:03.080Z,6.22
2023-05-19T11:55:30.439Z,6.30
2023-05-19T11:58:05.200Z,6.82
2023-05-19T12:00:39.591Z,5.88
2023-05-19T12:03:07.779Z,6.97
2023-05-19T12:05:44.903Z,6.13
2023-05-19T12:08:12.893Z,5.97
2023-05-19T12:10:40.906Z,6.05
2023-05-19T12:13:10.904Z,7.68
2023-05-19T12:15:39.946Z,6.60
2023-05-19T12:18:07.557Z,6.63
2023-05-19T12:20:38.099Z,6.40
2023-05-19T12:23:05.630Z,6.82
2023-05-19T12:25:33.057Z,7.05
2023-05-19T12:28:03.672Z,7.55
2023-05-19T12:30:32.911Z,5.63
2023-05-19T12:33:00.546Z,7.55
2023-05-19T12:35:33.427Z,6.93
2023-05-19T12:38:09.238Z,6.43
2023-05-19T12:40:37.543Z,6.78
2023-05-19T12:43:05.783Z,7.15
2023-05-19T12:45:36.897Z,7.47
2023-05-19T12:48:11.778Z,8.80
2023-05-19T12:50:38.689Z,7.85
2023-05-19T12:53:09.677Z,7.95
2023-05-19T12:55:44.466Z,7.82
2023-05-19T13:00:45.488Z,8.98
2023-05-19T13:03:19.712Z,9.52
2023-05-19T13:05:49.054Z,8.77
2023-05-19T13:08:18.300Z,9.02
2023-05-19T13:10:46.321Z,9.85
2023-05-19T13:13:13.596Z,9.02
2023-05-19T13:15:46.083Z,9.88
2023-05-19T13:18:13.628Z,8.48
2023-05-19T13:20:42.007Z,8.10
2023-05-19T13:23:10.982Z,9.60
2023-05-19T13:25:37.998Z,8.05
2023-05-19T13:28:10.766Z,9.77
2023-05-19T13:30:39.399Z,8.52
2023-05-19T13:33:06.585Z,9.48
2023-05-19T13:35:42.224Z,7.97
2023-05-19T13:38:10.455Z,10.88
2023-05-19T13:40:37.873Z,11.15
2023-05-19T13:43:05.136Z,10.00
2023-05-19T13:45:31.912Z,9.80
2023-05-19T13:47:58.925Z,9.82
2023-05-19T13:50:25.813Z,11.60
2023-05-19T13:52:52.672Z,10.07
2023-05-19T13:55:19.778Z,13.52
2023-05-19T13:57:46.629Z,12.23
2023-05-19T14:00:14.009Z,10.63
2023-05-19T14:02:41.064Z,12.82
2023-05-19T14:05:08.792Z,13.00
2023-05-19T14:07:35.845Z,13.20
2023-05-19T14:10:04.156Z,14.32
2023-05-19T14:12:41.640Z,13.07
2023-05-19T14:15:17.877Z,14.10
2023-05-19T14:17:44.860Z,12.57
2023-05-19T14:20:12.174Z,14.00
2023-05-19T14:22:39.022Z,13.18
2023-05-19T14:25:06.566Z,14.20
2023-05-19T14:27:33.202Z,14.32
2023-05-19T14:30:00.200Z,13.05
2023-05-19T14:32:28.594Z,14.63
2023-05-19T14:34:56.853Z,13.77
2023-05-19T14:37:24.383Z,12.35
2023-05-19T14:39:51.307Z,13.43
2023-05-19T14:42:17.975Z,12.55
2023-05-19T14:44:44.716Z,11.10
2023-05-19T14:47:12.777Z,13.98
2023-05-19T14:49:39.610Z,13.82
2023-05-19T14:52:06.780Z,13.18
2023-05-19T14:54:34.102Z,13.55
2023-05-19T14:57:01.719Z,12.65
2023-05-19T14:59:29.760Z,13.38
2023-05-19T15:01:56.437Z,14.05
2023-05-19T15:04:23.332Z,14.55
2023-05-19T15:06:58.072Z,14.90
2023-05-19T15:09:35.921Z,13.68
2023-05-19T15:12:02.614Z,13.27
2023-05-19T15:14:30.850Z,14.93
2023-05-19T15:16:58.175Z,13.77
2023-05-19T15:19:25.274Z,13.57
2023-05-19T15:21:52.348Z,12.00
2023-05-19T15:24:19.420Z,12.73
2023-05-19T15:26:46.101Z,12.20
2023-05-19T15:29:13.008Z,13.70
2023-05-19T15:31:39.920Z,11.85
2023-05-19T15:34:09.364Z,13.02
2023-05-19T15:36:36.528Z,12.20
2023-05-19T15:39:04.017Z,11.65
2023-05-19T15:41:31.097Z,12.02
2023-05-19T15:44:00.467Z,11.68
2023-05-19T15:46:27.922Z,10.48
2023-05-19T15:48:55.713Z,11.02
2023-05-19T15:51:22.571Z,10.77
2023-05-19T15:53:49.674Z,11.50
2023-05-19T15:56:16.857Z,10.27
2023-05-19T15:58:46.608Z,11.40
2023-05-19T16:01:14.386Z,10.85
2023-05-19T16:03:41.670Z,10.65
2023-05-19T16:06:08.877Z,11.30
2023-05-19T16:08:36.001Z,11.20
2023-05-19T16:11:06.398Z,11.10
2023-05-19T16:13:34.039Z,10.82
2023-05-19T16:16:01.117Z,10.45
2023-05-19T16:18:29.875Z,11.82
2023-05-19T16:20:56.603Z,13.40
2023-05-19T16:23:24.894Z,11.38
2023-05-19T16:25:52.365Z,10.30
2023-05-19T16:28:19.596Z,10.80
2023-05-19T16:30:46.333Z,12.10
2023-05-19T16:33:13.443Z,11.02
2023-05-19T16:35:40.306Z,11.63
2023-05-19T16:38:09.411Z,10.88
2023-05-19T16:40:36.494Z,11.20
2023-05-19T16:43:03.561Z,12.27
2023-05-19T16:45:31.030Z,10.88
2023-05-19T16:47:57.912Z,11.43
2023-05-19T16:50:24.874Z,11.57
2023-05-19T16:52:51.732Z,11.75
2023-05-19T16:55:20.181Z,10.88
2023-05-19T16:57:47.075Z,10.35
2023-05-19T17:00:14.567Z,10.52
2023-05-19T17:02:41.548Z,12.05
2023-05-19T17:05:08.797Z,10.65
2023-05-19T17:07:35.639Z,12.60
2023-05-19T17:10:02.308Z,12.50
2023-05-19T17:12:28.998Z,10.75
2023-05-19T17:14:55.846Z,11.65
2023-05-19T17:17:22.713Z,12.82
2023-05-19T17:19:49.438Z,10.48
2023-05-19T17:22:16.188Z,11.68
2023-05-19T17:24:42.862Z,11.38
2023-05-19T17:27:09.657Z,10.32
2023-05-19T17:29:36.965Z,8.73
2023-05-19T17:32:04.029Z,10.20
2023-05-19T17:34:31.019Z,10.98
2023-05-19T17:36:57.759Z,11.40
2023-05-19T17:39:24.884Z,12.43
2023-05-19T17:42:29.258Z,10.05
2023-05-19T17:44:55.977Z,9.68
2023-05-19T17:47:25.819Z,9.23
2023-05-19T17:49:55.621Z,10.48
2023-05-19T17:52:22.830Z,10.23
2023-05-19T17:54:50.716Z,10.10
2023-05-19T17:57:18.373Z,9.88
2023-05-19T17:59:45.389Z,10.88
2023-05-19T18:02:12.268Z,11.15
2023-05-19T18:04:39.319Z,11.30
2023-05-19T18:07:07.176Z,11.82
2023-05-19T18:09:36.331Z,11.40
2023-05-19T18:12:03.308Z,10.88
2023-05-19T18:14:30.316Z,10.98
2023-05-19T18:16:57.025Z,11.10
2023-05-19T18:19:23.955Z,11.38
2023-05-19T18:21:54.247Z,11.25
2023-05-19T18:24:20.959Z,11.93
2023-05-19T18:26:47.784Z,11.05
2023-05-19T18:29:15.069Z,11.40
2023-05-19T18:31:46.561Z,11.65
2023-05-19T18:34:14.084Z,10.77
2023-05-19T18:36:41.845Z,11.25
2023-05-19T18:39:08.651Z,9.88
2023-05-19T18:41:37.730Z,10.57
2023-05-19T18:44:06.431Z,10.50
2023-05-19T18:46:33.823Z,10.32
2023-05-19T18:49:00.817Z,11.13
2023-05-19T18:51:28.084Z,11.10
2023-05-19T18:53:54.745Z,10.20
2023-05-19T18:56:26.263Z,9.98
2023-05-19T18:58:54.081Z,10.68
2023-05-19T19:01:20.969Z,9.57
2023-05-19T19:03:49.502Z,23.08
2023-05-19T19:06:23.536Z,9.95
2023-05-19T19:08:50.641Z,9.47
2023-05-19T19:11:17.450Z,10.52
2023-05-19T19:13:44.346Z,11.52
2023-05-19T19:16:12.047Z,9.57
2023-05-19T19:18:38.909Z,10.57
2023-05-19T19:21:23.088Z,10.77
2023-05-19T19:23:58.380Z,10.20
2023-05-19T19:26:27.177Z,11.20
2023-05-19T19:28:53.933Z,9.88
2023-05-19T19:31:20.604Z,9.68
2023-05-19T19:33:47.356Z,10.82
2023-05-19T19:36:14.273Z,10.60
2023-05-19T19:38:41.120Z,10.50
2023-05-19T19:41:07.939Z,11.40
2023-05-19T19:43:34.917Z,10.70
2023-05-19T19:46:03.151Z,11.13
2023-05-19T19:48:30.884Z,11.32
2023-05-19T19:50:58.883Z,11.02
2023-05-19T19:53:25.666Z,10.15
2023-05-19T19:56:03.421Z,11.10
2023-05-19T19:58:30.714Z,11.43
2023-05-19T20:01:03.012Z,10.35
2023-05-19T20:03:30.437Z,10.48
2023-05-19T20:05:57.545Z,11.40
2023-05-19T20:08:25.319Z,10.52
2023-05-19T20:10:52.378Z,9.07
2023-05-19T20:13:19.442Z,10.43
2023-05-19T20:15:47.114Z,10.57
2023-05-19T20:18:14.054Z,11.73
2023-05-19T20:20:41.521Z,10.75
2023-05-19T20:23:08.301Z,11.70
2023-05-19T20:25:53.666Z,10.98
2023-05-19T20:28:25.875Z,11.35
2023-05-19T20:30:52.659Z,10.40
2023-05-19T20:33:19.339Z,10.73
2023-05-19T20:35:46.469Z,10.43
2023-05-19T20:38:13.411Z,10.07
2023-05-19T20:40:40.436Z,11.25
2023-05-19T20:43:07.318Z,10.43
2023-05-19T20:45:34.310Z,10.88
2023-05-19T20:48:02.916Z,9.88
2023-05-19T20:50:30.125Z,10.55
2023-05-19T20:52:56.890Z,10.43
2023-05-19T20:55:23.604Z,10.13
2023-05-19T20:57:50.555Z,10.55
2023-05-19T21:00:17.592Z,11.77
2023-05-19T21:02:44.586Z,10.85
2023-05-19T21:05:11.611Z,10.20
2023-05-19T21:07:44.014Z,9.82
2023-05-19T21:10:13.793Z,9.30
2023-05-19T21:12:40.718Z,9.57
2023-05-19T21:15:08.073Z,9.13
2023-05-19T21:17:34.852Z,10.30
2023-05-19T21:20:02.193Z,9.35
2023-05-19T21:22:28.981Z,9.25
2023-05-19T21:24:56.818Z,9.45
2023-05-19T21:27:23.613Z,9.75
2023-05-19T21:29:54.294Z,9.73
2023-05-19T21:32:21.712Z,10.07
2023-05-19T21:34:48.416Z,9.30
2023-05-19T21:37:17.364Z,9.23
2023-05-19T21:39:44.507Z,9.30
2023-05-19T21:42:11.408Z,8.93
2023-05-19T21:44:38.210Z,9.18
2023-05-19T21:47:04.985Z,8.20
2023-05-19T21:49:31.957Z,9.68
2023-05-19T21:51:58.808Z,9.52
2023-05-19T21:54:25.653Z,9.35
2023-05-19T21:56:52.459Z,9.50
2023-05-19T21:59:23.219Z,8.77
2023-05-19T22:01:50.322Z,10.32
2023-05-19T22:04:18.763Z,10.38
2023-05-19T22:06:45.676Z,9.02
2023-05-19T22:09:12.981Z,8.82
2023-05-19T22:11:40.131Z,9.88
2023-05-19T22:14:07.291Z,9.20
2023-05-19T22:16:34.224Z,9.70
2023-05-19T22:19:01.106Z,9.05
2023-05-19T22:21:28.083Z,9.15
2023-05-19T22:23:54.950Z,9.45
2023-05-19T22:26:22.255Z,9.20
2023-05-19T22:28:50.015Z,9.65
2023-05-19T22:31:16.915Z,9.60
2023-05-19T22:33:44.175Z,9.45
2023-05-19T22:36:14.081Z,10.23
2023-05-19T22:38:40.983Z,9.00
2023-05-19T22:41:07.734Z,8.82
2023-05-19T22:43:34.427Z,9.10
2023-05-19T22:46:01.409Z,9.02
2023-05-19T22:48:28.440Z,8.32
2023-05-19T22:50:55.177Z,8.95
2023-05-19T22:53:21.840Z,9.00
2023-05-19T22:55:48.621Z,9.20
2023-05-19T22:58:17.986Z,8.63
2023-05-19T23:00:45.185Z,8.73
2023-05-19T23:03:12.182Z,10.13
2023-05-19T23:05:38.898Z,8.70
2023-05-19T23:08:05.957Z,8.88
2023-05-19T23:10:32.617Z,11.00
2023-05-19T23:12:59.334Z,8.90
2023-05-19T23:15:26.282Z,8.60
2023-05-19T23:17:52.943Z,8.73
2023-05-19T23:20:19.772Z,9.23
2023-05-19T23:22:46.501Z,9.65
2023-05-19T23:25:13.348Z,8.52
2023-05-19T23:27:40.079Z,9.57
2023-05-19T23:30:07.604Z,8.90
2023-05-19T23:32:34.453Z,8.75
2023-05-19T23:35:14.688Z,8.85
2023-05-19T23:37:41.570Z,9.63
2023-05-19T23:40:08.814Z,8.82
2023-05-19T23:42:35.797Z,8.65
2023-05-19T23:45:02.889Z,8.82
2023-05-19T23:47:29.648Z,8.93
2023-05-19T23:49:56.439Z,8.43
2023-05-19T23:52:23.612Z,9.57
2023-05-19T23:54:50.401Z,9.05
2023-05-19T23:57:17.216Z,9.38
2023-05-19T23:59:44.130Z,8.45
